createdAt,value
2018-09-10T00:02:36.148Z,14.40
2018-09-10T00:07:39.574Z,14.30
2018-09-10T00:12:42.963Z,14.30
2018-09-10T00:17:46.325Z,14.20
2018-09-10T00:22:49.701Z,14.20
2018-09-10T00:27:53.443Z,14.10
2018-09-10T00:32:56.772Z,14.00
2018-09-10T00:38:01.155Z,13.90
2018-09-10T00:43:04.555Z,13.90
2018-09-10T00:48:08.919Z,13.90
2018-09-10T00:53:12.221Z,13.80
2018-09-10T00:58:15.505Z,13.70
2018-09-10T01:03:18.893Z,13.80
2018-09-10T01:08:23.269Z,13.70
2018-09-10T01:13:26.563Z,13.60
2018-09-10T01:18:29.984Z,13.60
2018-09-10T01:23:33.383Z,13.50
2018-09-10T01:28:36.779Z,13.50
2018-09-10T01:33:45.652Z,13.50
2018-09-10T01:38:48.999Z,13.60
2018-09-10T01:43:52.398Z,13.60
2018-09-10T01:48:55.848Z,13.40
2018-09-10T01:53:59.384Z,13.20
2018-09-10T01:59:02.707Z,13.20
2018-09-10T02:04:06.097Z,13.30
2018-09-10T02:09:09.782Z,13.10
2018-09-10T02:14:13.148Z,13.00
2018-09-10T02:19:16.518Z,13.00
2018-09-10T02:24:19.884Z,13.00
2018-09-10T02:29:23.258Z,12.90
2018-09-10T02:34:26.586Z,12.80
2018-09-10T02:39:29.981Z,12.70
2018-09-10T02:44:33.459Z,12.80
2018-09-10T02:49:37.012Z,12.80
2018-09-10T02:54:40.464Z,12.80
2018-09-10T02:59:44.812Z,12.80
2018-09-10T03:04:48.312Z,12.80
2018-09-10T03:09:51.864Z,12.80
2018-09-10T03:14:55.501Z,12.70
2018-09-10T03:19:59.226Z,12.60
2018-09-10T03:25:03.044Z,12.60
2018-09-10T03:30:06.773Z,12.60
2018-09-10T03:35:10.431Z,12.60
2018-09-10T03:40:14.167Z,12.60
2018-09-10T03:45:17.721Z,12.50
2018-09-10T03:50:21.630Z,12.30
2018-09-10T03:55:25.603Z,12.20
2018-09-10T04:00:29.268Z,12.10
2018-09-10T04:05:33.112Z,12.10
2018-09-10T04:10:36.864Z,12.00
2018-09-10T04:15:40.946Z,11.70
2018-09-10T04:20:44.890Z,11.60
2018-09-10T04:25:49.015Z,11.70
2018-09-10T04:30:53.295Z,11.80
2018-09-10T04:35:57.484Z,11.80
2018-09-10T04:41:01.416Z,11.90
2018-09-10T04:46:05.492Z,11.90
2018-09-10T04:51:09.879Z,11.90
2018-09-10T04:56:13.747Z,11.90
2018-09-10T05:01:17.783Z,11.90
2018-09-10T05:06:21.510Z,12.00
2018-09-10T05:11:25.053Z,11.80
2018-09-10T05:16:28.620Z,11.90
2018-09-10T05:21:32.364Z,12.00
2018-09-10T05:26:39.864Z,12.10
2018-09-10T05:31:43.450Z,12.10
2018-09-10T05:36:47.186Z,12.20
2018-09-10T05:41:50.703Z,12.20
2018-09-10T05:46:54.676Z,12.30
2018-09-10T05:51:58.437Z,12.60
2018-09-10T05:57:02.215Z,12.90
2018-09-10T06:02:05.932Z,13.00
2018-09-10T06:07:09.563Z,13.40
2018-09-10T06:12:13.254Z,13.50
2018-09-10T06:17:17.104Z,13.60
2018-09-10T06:22:21.320Z,13.90
2018-09-10T06:27:25.003Z,14.30
2018-09-10T06:32:28.637Z,14.40
2018-09-10T06:37:32.329Z,14.70
2018-09-10T06:42:35.957Z,14.90
2018-09-10T06:47:39.676Z,15.00
2018-09-10T06:52:43.231Z,15.20
2018-09-10T06:57:46.777Z,15.30
2018-09-10T07:02:50.625Z,15.70
2018-09-10T07:07:54.206Z,16.20
2018-09-10T07:12:57.856Z,16.80
2018-09-10T07:18:01.577Z,17.40
2018-09-10T07:23:05.257Z,18.00
2018-09-10T07:28:08.892Z,18.50
2018-09-10T07:33:12.754Z,19.20
2018-09-10T07:38:16.910Z,19.70
2018-09-10T07:43:20.643Z,20.30
2018-09-10T07:48:24.519Z,20.70
2018-09-10T07:53:28.330Z,21.10
2018-09-10T07:58:32.559Z,21.40
2018-09-10T08:03:36.445Z,21.80
2018-09-10T08:08:43.523Z,22.10
2018-09-10T08:13:47.415Z,22.50
2018-09-10T08:18:54.240Z,22.70
2018-09-10T08:23:58.367Z,23.10
2018-09-10T08:29:02.567Z,22.90
2018-09-10T08:34:06.612Z,23.30
2018-09-10T08:39:10.668Z,23.60
2018-09-10T08:44:18.960Z,23.80
2018-09-10T08:49:40.759Z,24.70
2018-09-10T08:54:44.448Z,24.90
2018-09-10T08:59:47.546Z,24.90
2018-09-10T09:04:50.950Z,25.30
2018-09-10T09:09:54.325Z,25.50
2018-09-10T09:14:57.770Z,25.40
2018-09-10T09:20:01.155Z,25.50
2018-09-10T09:25:04.605Z,25.70
2018-09-10T09:30:08.090Z,25.90
2018-09-10T09:35:11.545Z,26.00
2018-09-10T09:40:20.222Z,26.20
2018-09-10T09:45:28.969Z,26.10
2018-09-10T09:50:32.478Z,26.30
2018-09-10T09:55:36.066Z,26.40
2018-09-10T10:00:44.862Z,26.20
2018-09-10T10:05:48.345Z,26.60
2018-09-10T10:22:07.020Z,27.20
2018-09-10T10:27:10.515Z,27.20
2018-09-10T10:32:15.463Z,27.30
2018-09-10T10:37:19.925Z,27.40
2018-09-10T10:42:23.383Z,27.30
2018-09-10T10:47:26.829Z,27.40
2018-09-10T10:52:33.817Z,27.40
2018-09-10T10:57:38.320Z,27.70
2018-09-10T11:02:42.658Z,27.50
2018-09-10T11:07:46.060Z,27.20
2018-09-10T11:12:49.619Z,27.30
2018-09-10T11:17:53.242Z,27.60
2018-09-10T11:22:56.746Z,27.90
2018-09-10T11:28:01.145Z,28.70
2018-09-10T11:33:04.770Z,29.50
2018-09-10T11:38:08.223Z,29.80
2018-09-10T11:43:11.569Z,30.10
2018-09-10T11:48:15.046Z,30.20
2018-09-10T11:53:18.788Z,30.10
2018-09-10T11:58:22.246Z,30.10
2018-09-10T12:03:25.526Z,30.10
2018-09-10T12:08:28.946Z,30.70
2018-09-10T12:13:32.481Z,31.30
2018-09-10T12:18:36.066Z,31.20
2018-09-10T12:23:39.977Z,31.50
2018-09-10T12:28:43.328Z,31.80
2018-09-10T12:33:46.797Z,32.00
2018-09-10T12:38:50.136Z,32.50
2018-09-10T12:43:53.996Z,31.60
2018-09-10T12:48:57.595Z,31.60
2018-09-10T12:54:01.034Z,32.00
2018-09-10T12:59:04.610Z,32.50
2018-09-10T13:04:08.101Z,32.80
2018-09-10T13:09:11.442Z,32.00
2018-09-10T13:14:15.001Z,31.30
2018-09-10T13:19:18.426Z,31.60
2018-09-10T13:24:21.855Z,32.40
2018-09-10T13:29:26.258Z,32.80
2018-09-10T13:34:29.725Z,32.90
2018-09-10T13:39:33.104Z,32.80
2018-09-10T13:44:36.412Z,33.10
2018-09-10T13:49:39.705Z,33.30
2018-09-10T13:54:43.032Z,33.40
2018-09-10T13:59:46.429Z,33.40
2018-09-10T14:04:49.801Z,32.40
2018-09-10T14:09:54.122Z,31.90
2018-09-10T14:14:57.492Z,31.80
2018-09-10T14:20:00.839Z,31.40
2018-09-10T14:25:04.243Z,31.50
2018-09-10T14:30:07.584Z,31.40
2018-09-10T14:35:10.990Z,30.80
2018-09-10T14:40:14.440Z,30.60
2018-09-10T14:45:17.784Z,30.70
2018-09-10T14:50:22.530Z,30.60
2018-09-10T14:55:26.937Z,30.90
2018-09-10T15:00:31.899Z,30.90
2018-09-10T15:05:38.051Z,30.50
2018-09-10T15:10:42.411Z,31.00
2018-09-10T15:15:49.417Z,31.20
2018-09-10T15:20:53.252Z,31.30
2018-09-10T15:25:59.250Z,31.30
2018-09-10T15:31:03.300Z,31.00
2018-09-10T15:36:07.531Z,30.90
2018-09-10T15:41:11.416Z,30.60
2018-09-10T15:46:15.498Z,30.60
2018-09-10T15:51:21.745Z,30.50
2018-09-10T15:56:27.449Z,30.50
2018-09-10T16:01:34.015Z,30.40
2018-09-10T16:06:43.011Z,30.20
2018-09-10T16:11:47.583Z,29.70
2018-09-10T16:16:52.391Z,29.60
2018-09-10T16:21:56.992Z,29.40
2018-09-10T16:27:01.586Z,29.10
2018-09-10T16:32:06.605Z,29.00
2018-09-10T16:37:10.714Z,29.10
2018-09-10T16:42:18.588Z,29.20
2018-09-10T16:47:34.280Z,29.20
2018-09-10T16:52:38.202Z,29.10
2018-09-10T16:57:43.265Z,28.80
2018-09-10T17:02:47.115Z,28.30
2018-09-10T17:07:52.170Z,28.20
2018-09-10T17:12:56.257Z,28.00
2018-09-10T17:18:01.605Z,27.90
2018-09-10T17:23:05.891Z,27.80
2018-09-10T17:28:14.740Z,27.40
2018-09-10T17:33:20.747Z,27.30
2018-09-10T17:38:24.877Z,27.10
2018-09-10T17:43:29.027Z,27.00
2018-09-10T17:48:32.769Z,26.90
2018-09-10T17:53:36.709Z,26.70
2018-09-10T17:58:40.897Z,26.50
2018-09-10T18:03:45.341Z,26.30
2018-09-10T18:08:49.513Z,26.10
2018-09-10T18:13:55.435Z,25.80
2018-09-10T18:19:00.659Z,25.60
2018-09-10T18:24:05.592Z,25.30
2018-09-10T18:29:09.470Z,25.10
2018-09-10T18:34:16.582Z,25.00
2018-09-10T18:39:27.509Z,24.80
2018-09-10T18:44:38.128Z,24.60
2018-09-10T18:49:42.220Z,24.40
2018-09-10T18:54:46.233Z,24.20
2018-09-10T18:59:51.045Z,24.00
2018-09-10T19:04:54.917Z,23.80
2018-09-10T19:09:59.499Z,23.60
2018-09-10T19:15:03.602Z,23.40
2018-09-10T19:20:09.804Z,23.20
2018-09-10T19:25:13.244Z,23.20
2018-09-10T19:30:16.926Z,23.00
2018-09-10T19:35:26.133Z,22.90
2018-09-10T19:40:37.890Z,22.80
2018-09-10T19:45:43.211Z,22.70
2018-09-10T19:56:00.702Z,22.40
2018-09-10T20:01:06.497Z,22.30
2018-09-10T20:06:25.669Z,22.10
2018-09-10T20:11:30.563Z,22.00
2018-09-10T20:16:40.057Z,21.90
2018-09-10T20:21:44.540Z,21.80
2018-09-10T20:26:51.144Z,21.80
2018-09-10T20:31:54.942Z,21.70
2018-09-10T20:37:00.252Z,21.60
2018-09-10T20:42:04.656Z,21.60
2018-09-10T20:47:08.537Z,21.60
2018-09-10T20:52:12.158Z,21.60
2018-09-10T20:57:15.601Z,21.40
2018-09-10T21:02:18.954Z,21.30
2018-09-10T21:07:23.262Z,21.10
2018-09-10T21:12:26.601Z,20.90
2018-09-10T21:17:29.992Z,20.70
2018-09-10T21:22:33.425Z,20.40
2018-09-10T21:27:36.878Z,20.30
2018-09-10T21:32:40.232Z,20.20
2018-09-10T21:37:43.543Z,20.00
2018-09-10T21:42:46.922Z,19.80
2018-09-10T21:47:50.266Z,19.60
2018-09-10T21:52:53.654Z,19.30
2018-09-10T21:57:57.000Z,19.20
2018-09-10T22:03:00.397Z,19.20
2018-09-10T22:08:03.785Z,19.10
2018-09-10T22:13:07.236Z,18.80
2018-09-10T22:18:11.358Z,18.70
2018-09-10T22:23:14.653Z,18.70
2018-09-10T22:28:18.067Z,18.60
2018-09-10T22:33:21.597Z,18.40
2018-09-10T22:38:24.960Z,18.40
2018-09-10T22:43:28.431Z,18.30
2018-09-10T22:48:31.799Z,18.10
2018-09-10T22:53:35.246Z,18.00
2018-09-10T22:58:39.320Z,18.00
2018-09-10T23:03:42.901Z,17.90
2018-09-10T23:08:46.396Z,17.80
2018-09-10T23:13:49.790Z,17.70
2018-09-10T23:18:53.206Z,17.40
2018-09-10T23:23:56.661Z,17.40
2018-09-10T23:29:00.284Z,17.30
2018-09-10T23:34:03.761Z,17.30
2018-09-10T23:39:08.335Z,17.20
2018-09-10T23:44:12.473Z,17.10
2018-09-10T23:49:15.849Z,17.00
2018-09-10T23:54:19.359Z,17.00
2018-09-10T23:59:22.954Z,16.90
